Portada
METAR-TAF:

METAR-TAF

Aeroports :

Txungking, Xina

latitud: 29-31N, longitud: 106-29E, altitud: 351 m

Observació

L'informe es va fer fa 28 minuts, a les 11:00 UTC
Vent 16 kt del Nord/Nord-Est
Temperatura 11°C
Humitat 76%
Pressió 1015 hPa
Visibilitat 10 km o més
sense núvols per sota de 1500 mi sense presència de cumulonimbus.

METAR: ZUCK 201100Z 02008MPS CAVOK 11/07 Q1015 NOSIG

Hora: 19:28 (11:28 UTC)

Pronòstic

L'informe es va fer fa 8 hores i 15 minuts, a les 03:13 UTC
Pronòstic vàlid del 20 a les 06 UTC al 21 a les 06 UTC
Vent 4 kt del Sud/Sud-Est
Visibilitat: 5000 m
Escasses núvols a una alçada de 3000 ft
Cel cobert a una alçada de 5000 ft
boirina
Temporalment
l' 20 a les 18 UTC al 20 a les 24 UTC
Visibilitat: 3000 m
pluja, boirina

TAF: ZUCK 200313Z 2006/2106 15002MPS 5000 BR FEW030 OVC050 TX13/2008Z TN07/2023Z TEMPO 2018/2024 3000 -RA BR

Observacions i pronòstics meteorològics de més de 4000 aeroports (METAR i TAF).

Les estacions disponibles són els punts grocs i vermells al mapa.

Posi el ratolí al punt desitjat per veure el nom de l'estació.

Feu clic per veure les observacions i els pronòstics meteorològics.

Per canviar el mapa: feu clic els botons verds amb una creu de color negre per apropar; al botó verd amb un guió per allunyar la imatge; o en les fletxes verdes per a mapes adjacents.


METAR-TAF: